Time;durP1;ratioP1;P1;durP2;ratioP2;P2;SDS_P1;SDS_P2;PMS_P1;PMS_P2;Temp;Humidity;BMP_temperature;BMP_pressure;BME280_temperature;BME280_humidity;BME280_pressure;Samples;Min_cycle;Max_cycle;Signal;HPM_P1;HPM_P2
2022/07/08 00:00:45;;;;;;;6.30;2.00;;;25.90;42.20;;;;;;5066856;28;20454;-79
2022/07/08 00:03:14;;;;;;;3.57;1.70;;;25.80;42.10;;;;;;5052960;28;20441;-79
2022/07/08 00:05:44;;;;;;;10.33;1.80;;;25.80;42.20;;;;;;5058565;28;20471;-81
2022/07/08 00:08:12;;;;;;;4.40;1.50;;;25.80;42.20;;;;;;5065859;28;20441;-80
2022/07/08 00:10:40;;;;;;;8.10;2.13;;;25.80;42.10;;;;;;5067528;28;20562;-80
2022/07/08 00:13:08;;;;;;;4.80;1.60;;;25.80;42.20;;;;;;5067783;28;20437;-80
2022/07/08 00:15:36;;;;;;;5.47;1.97;;;25.80;42.20;;;;;;5067069;28;20530;-80
2022/07/08 00:18:04;;;;;;;5.17;1.70;;;25.80;42.10;;;;;;5066706;28;20462;-80
2022/07/08 00:20:32;;;;;;;5.40;1.90;;;25.80;42.10;;;;;;5066690;28;20414;-79
2022/07/08 00:23:01;;;;;;;4.13;1.80;;;25.80;42.10;;;;;;5063738;28;20463;-80
2022/07/08 00:25:29;;;;;;;5.63;1.80;;;25.80;42.20;;;;;;5063419;28;20473;-80
2022/07/08 00:27:57;;;;;;;6.83;2.03;;;25.70;42.10;;;;;;5068196;28;20417;-80
2022/07/08 00:30:25;;;;;;;5.33;1.73;;;25.70;42.10;;;;;;5067328;28;20417;-80
2022/07/08 00:32:53;;;;;;;7.40;1.90;;;25.70;42.10;;;;;;5058387;28;20474;-78
2022/07/08 00:35:21;;;;;;;4.30;1.77;;;25.70;42.10;;;;;;5054185;28;20436;-78
2022/07/08 00:37:48;;;;;;;4.63;1.40;;;25.70;42.20;;;;;;5053310;28;20491;-79
2022/07/08 00:40:18;;;;;;;4.60;1.80;;;25.70;42.20;;;;;;5039901;28;20464;-78
2022/07/08 00:42:48;;;;;;;7.13;1.70;;;25.60;42.10;;;;;;5035557;28;20457;-78
2022/07/08 00:45:16;;;;;;;3.83;1.57;;;25.70;42.20;;;;;;5031886;28;20544;-78
2022/07/08 00:47:44;;;;;;;3.07;1.57;;;25.60;42.10;;;;;;5032150;28;20493;-78
2022/07/08 00:50:12;;;;;;;5.33;1.50;;;25.70;42.20;;;;;;5051984;28;20517;-78
2022/07/08 00:52:40;;;;;;;5.50;1.90;;;25.60;42.10;;;;;;5055989;28;20469;-79
2022/07/08 00:55:08;;;;;;;6.60;1.53;;;25.60;42.20;;;;;;5058532;28;20457;-79
2022/07/08 00:57:38;;;;;;;4.70;1.47;;;25.70;42.10;;;;;;5058938;28;20500;-80
2022/07/08 01:00:09;;;;;;;5.30;1.20;;;25.60;42.10;;;;;;5060341;28;20507;-80
2022/07/08 01:02:37;;;;;;;4.70;1.67;;;25.60;42.20;;;;;;5036761;28;20442;-79
2022/07/08 01:05:06;;;;;;;4.27;1.50;;;25.60;42.20;;;;;;5033232;28;20441;-79
2022/07/08 01:07:34;;;;;;;4.47;1.50;;;25.60;42.20;;;;;;5035494;28;20519;-79
2022/07/08 01:10:02;;;;;;;6.20;1.70;;;25.60;42.20;;;;;;5039023;28;20537;-79
2022/07/08 01:12:29;;;;;;;4.73;1.50;;;25.60;42.20;;;;;;5040407;28;20438;-80
2022/07/08 01:14:59;;;;;;;3.50;1.20;;;25.60;42.20;;;;;;5032177;28;20450;-78
2022/07/08 01:17:41;;;;;;;4.10;1.43;;;25.70;42.20;;;;;;5035220;28;20410;-78
2022/07/08 01:20:10;;;;;;;6.37;1.50;;;25.60;42.20;;;;;;5035460;28;20538;-78
2022/07/08 01:22:40;;;;;;;5.90;2.13;;;25.60;42.20;;;;;;5053678;28;20490;-78
2022/07/08 01:25:08;;;;;;;3.50;1.40;;;25.60;42.20;;;;;;5042449;28;20536;-79
2022/07/08 01:27:36;;;;;;;4.20;1.50;;;25.60;42.20;;;;;;5057358;28;20449;-78
2022/07/08 01:30:05;;;;;;;7.13;1.70;;;25.60;42.20;;;;;;5047252;28;20421;-79
2022/07/08 01:32:33;;;;;;;5.23;1.97;;;25.60;42.20;;;;;;5039422;28;20536;-79
2022/07/08 01:35:02;;;;;;;3.07;1.33;;;25.70;42.30;;;;;;5040680;28;20402;-79
2022/07/08 01:37:30;;;;;;;2.60;1.50;;;25.60;42.20;;;;;;5040591;28;20486;-79
2022/07/08 01:40:00;;;;;;;6.80;1.87;;;25.60;42.20;;;;;;5043150;28;20434;-79
2022/07/08 01:42:28;;;;;;;4.53;1.43;;;25.60;42.20;;;;;;5058606;28;20533;-79
2022/07/08 01:44:56;;;;;;;4.50;1.43;;;25.60;42.20;;;;;;5054464;28;20553;-80
2022/07/08 01:47:24;;;;;;;2.57;1.20;;;25.60;42.30;;;;;;5063347;28;20533;-80
2022/07/08 01:49:52;;;;;;;3.80;1.40;;;25.60;42.30;;;;;;5060781;28;20848;-79
2022/07/08 01:52:20;;;;;;;3.80;1.40;;;25.50;42.30;;;;;;5044962;28;20546;-80
2022/07/08 01:54:49;;;;;;;3.00;1.53;;;25.60;42.40;;;;;;5053656;28;20537;-79
2022/07/08 01:57:18;;;;;;;4.23;1.40;;;25.50;42.20;;;;;;5061529;28;20504;-79
2022/07/08 01:59:47;;;;;;;4.53;1.77;;;25.50;42.20;;;;;;5060258;28;20529;-79
2022/07/08 02:02:16;;;;;;;4.13;1.27;;;25.50;42.20;;;;;;5053587;28;20523;-79
2022/07/08 02:04:44;;;;;;;4.40;1.50;;;25.40;42.20;;;;;;5061757;28;20496;-79
2022/07/08 02:07:12;;;;;;;3.10;1.50;;;25.50;42.20;;;;;;5060972;28;20420;-79
2022/07/08 02:09:40;;;;;;;6.80;1.60;;;25.50;42.20;;;;;;5060482;28;20481;-79
2022/07/08 02:12:20;;;;;;;6.70;1.63;;;25.50;42.10;;;;;;5060395;28;20444;-79
2022/07/08 02:14:49;;;;;;;5.60;1.67;;;25.50;42.10;;;;;;5059862;28;20495;-79
2022/07/08 02:17:18;;;;;;;3.53;1.53;;;25.50;42.20;;;;;;5053929;28;20523;-79
2022/07/08 02:19:46;;;;;;;4.57;1.03;;;25.50;42.30;;;;;;5058875;28;20444;-79
2022/07/08 02:22:14;;;;;;;6.87;1.80;;;25.50;42.20;;;;;;5059454;28;20452;-79
2022/07/08 02:24:42;;;;;;;3.40;1.53;;;25.50;42.20;;;;;;5059884;28;20496;-79
2022/07/08 02:27:10;;;;;;;5.80;1.83;;;25.50;42.30;;;;;;5058611;28;20580;-79
2022/07/08 02:29:38;;;;;;;2.57;1.27;;;25.50;42.40;;;;;;5059525;28;20512;-78
2022/07/08 02:32:08;;;;;;;5.67;2.00;;;25.50;42.40;;;;;;5055053;28;20477;-79
2022/07/08 02:34:36;;;;;;;5.17;1.67;;;25.50;42.40;;;;;;5050847;28;20580;-79
2022/07/08 02:37:04;;;;;;;2.60;1.43;;;25.50;42.60;;;;;;5059969;28;20425;-79
2022/07/08 02:39:32;;;;;;;4.97;1.30;;;25.50;42.50;;;;;;5059621;28;20492;-79
2022/07/08 02:42:00;;;;;;;2.80;1.33;;;25.50;42.60;;;;;;5057389;28;20475;-79
2022/07/08 02:44:28;;;;;;;4.00;1.57;;;25.50;42.60;;;;;;5056862;28;20451;-79
2022/07/08 02:46:56;;;;;;;6.40;1.70;;;25.50;42.60;;;;;;5056056;28;20561;-79
2022/07/08 02:49:25;;;;;;;2.17;1.77;;;25.50;43.20;;;;;;5057212;28;20484;-79
2022/07/08 02:51:53;;;;;;;3.93;1.57;;;25.50;42.60;;;;;;5053929;28;20543;-79
2022/07/08 02:54:21;;;;;;;7.60;1.57;;;25.50;42.60;;;;;;5036851;28;20467;-79
2022/07/08 02:56:49;;;;;;;5.33;1.47;;;25.50;42.70;;;;;;5037041;28;20434;-79
2022/07/08 02:59:17;;;;;;;3.90;1.63;;;25.50;42.70;;;;;;5036438;28;20492;-79
2022/07/08 03:01:44;;;;;;;3.93;1.47;;;25.50;42.70;;;;;;5036797;28;20509;-79
2022/07/08 03:04:12;;;;;;;6.73;1.90;;;25.50;42.90;;;;;;5035963;28;20520;-79
2022/07/08 03:06:42;;;;;;;3.73;1.50;;;25.50;42.80;;;;;;5044498;28;20499;-79
2022/07/08 03:09:10;;;;;;;3.93;1.70;;;25.50;42.80;;;;;;5036121;28;20455;-79
2022/07/08 03:11:38;;;;;;;2.80;1.40;;;25.50;42.90;;;;;;5036424;28;20450;-79
2022/07/08 03:14:06;;;;;;;3.23;1.40;;;25.50;43.00;;;;;;5034829;28;20446;-79
2022/07/08 03:16:35;;;;;;;6.27;1.60;;;25.50;43.00;;;;;;5034590;28;20467;-78
2022/07/08 03:19:03;;;;;;;2.70;1.57;;;25.50;42.80;;;;;;5033992;28;20452;-79
2022/07/08 03:21:31;;;;;;;1.60;1.20;;;25.50;42.90;;;;;;5045706;28;20435;-79
2022/07/08 03:24:00;;;;;;;3.30;1.90;;;25.50;42.90;;;;;;5053237;28;20425;-79
2022/07/08 03:26:28;;;;;;;3.80;1.40;;;25.50;43.00;;;;;;5052147;28;20457;-79
2022/07/08 03:28:56;;;;;;;1.43;1.33;;;25.50;43.00;;;;;;5052567;28;20421;-79
2022/07/08 03:31:24;;;;;;;3.40;1.60;;;25.50;43.20;;;;;;5052768;28;20425;-80
2022/07/08 03:33:52;;;;;;;3.47;1.50;;;25.50;43.20;;;;;;5053225;28;20453;-79
2022/07/08 03:36:19;;;;;;;2.80;1.00;;;25.40;43.10;;;;;;5052937;28;20496;-79
2022/07/08 03:38:47;;;;;;;3.50;1.60;;;25.40;43.10;;;;;;5050789;28;20549;-79
2022/07/08 03:41:23;;;;;;;1.63;1.37;;;25.40;43.20;;;;;;5041979;28;20426;-79
2022/07/08 03:43:51;;;;;;;2.00;1.30;;;25.40;43.20;;;;;;5053759;28;20510;-79
2022/07/08 03:46:19;;;;;;;3.23;1.20;;;25.40;43.30;;;;;;5053405;28;20544;-78
2022/07/08 03:48:47;;;;;;;5.13;1.70;;;25.40;43.30;;;;;;5052327;28;20430;-79
2022/07/08 03:51:15;;;;;;;8.37;1.60;;;25.40;43.40;;;;;;5051967;28;20503;-77
2022/07/08 03:53:43;;;;;;;4.90;1.87;;;25.40;43.40;;;;;;5051010;28;20540;-79
2022/07/08 03:56:11;;;;;;;4.20;1.70;;;25.40;43.30;;;;;;5043454;28;20546;-79
2022/07/08 03:58:40;;;;;;;1.50;1.30;;;25.40;43.50;;;;;;5051793;28;20438;-79
2022/07/08 04:01:08;;;;;;;2.80;1.60;;;25.40;43.40;;;;;;5052908;28;20425;-79
2022/07/08 04:03:36;;;;;;;1.53;1.30;;;25.40;43.40;;;;;;5052367;28;20475;-79
2022/07/08 04:06:04;;;;;;;2.30;1.33;;;25.40;43.40;;;;;;5052887;28;20577;-80
2022/07/08 04:08:32;;;;;;;3.23;1.37;;;25.40;43.50;;;;;;5054810;28;20448;-80
2022/07/08 04:11:01;;;;;;;3.77;1.33;;;25.40;43.50;;;;;;5053100;28;20453;-79
2022/07/08 04:13:28;;;;;;;3.27;1.57;;;25.40;43.40;;;;;;5046389;28;20484;-79
2022/07/08 04:15:58;;;;;;;3.20;1.50;;;25.40;43.40;;;;;;5056140;28;20552;-79
2022/07/08 04:18:26;;;;;;;3.90;1.47;;;25.40;43.40;;;;;;5052731;28;20443;-79
2022/07/08 04:20:54;;;;;;;4.93;1.53;;;25.40;43.50;;;;;;5052450;28;20421;-78
2022/07/08 04:23:22;;;;;;;2.10;1.30;;;25.40;43.40;;;;;;5052304;28;20429;-78
2022/07/08 04:25:58;;;;;;;1.77;1.10;;;25.40;43.70;;;;;;5051543;28;20516;-79
2022/07/08 04:28:25;;;;;;;3.00;1.90;;;25.40;43.50;;;;;;5051656;28;20465;-79
2022/07/08 04:30:55;;;;;;;1.53;1.33;;;25.40;43.70;;;;;;5044442;28;20473;-78
2022/07/08 04:33:25;;;;;;;1.57;1.40;;;25.40;43.50;;;;;;5053111;28;20470;-79
2022/07/08 04:35:53;;;;;;;3.23;1.70;;;25.40;43.70;;;;;;5054402;28;20537;-79
2022/07/08 04:38:21;;;;;;;3.13;1.47;;;25.40;43.60;;;;;;5054635;28;20421;-79
2022/07/08 04:40:49;;;;;;;3.50;1.80;;;25.50;43.60;;;;;;5054481;28;20437;-78
2022/07/08 04:43:17;;;;;;;2.87;1.30;;;25.40;43.70;;;;;;5054642;28;20532;-79
2022/07/08 04:45:49;;;;;;;1.87;1.37;;;25.50;43.70;;;;;;5048495;28;20444;-80
2022/07/08 04:48:17;;;;;;;3.20;1.70;;;25.40;43.50;;;;;;5056656;28;20471;-79
2022/07/08 04:50:46;;;;;;;3.13;1.30;;;25.40;43.60;;;;;;5059549;28;20940;-79
2022/07/08 04:53:14;;;;;;;2.57;1.50;;;25.40;43.60;;;;;;5059655;28;20465;-79
2022/07/08 04:55:42;;;;;;;1.30;1.20;;;25.40;43.60;;;;;;5059831;28;20508;-78
2022/07/08 04:58:09;;;;;;;1.70;1.27;;;25.40;43.60;;;;;;5060326;28;20504;-79
2022/07/08 05:00:37;;;;;;;1.93;1.60;;;25.50;43.70;;;;;;5058783;28;20456;-79
2022/07/08 05:03:05;;;;;;;1.60;1.10;;;25.50;43.60;;;;;;5049272;28;20459;-79
2022/07/08 05:05:34;;;;;;;1.40;1.27;;;25.50;43.60;;;;;;5055712;28;20445;-77
2022/07/08 05:08:04;;;;;;;1.50;1.23;;;25.50;43.60;;;;;;5055502;28;20449;-80
2022/07/08 05:10:31;;;;;;;4.03;1.50;;;25.50;43.80;;;;;;5056549;28;20898;-79
2022/07/08 05:12:59;;;;;;;1.27;1.17;;;25.50;43.80;;;;;;5056886;28;20445;-80
2022/07/08 05:15:27;;;;;;;1.30;1.20;;;25.50;43.60;;;;;;5056262;28;20421;-79
2022/07/08 05:17:55;;;;;;;1.53;1.10;;;25.50;43.60;;;;;;5052490;28;20537;-80
2022/07/08 05:20:23;;;;;;;2.83;1.70;;;25.50;44.30;;;;;;5051856;28;20417;-79
2022/07/08 05:22:51;;;;;;;2.00;1.40;;;25.50;43.90;;;;;;5055465;28;20437;-79
2022/07/08 05:25:21;;;;;;;1.93;1.03;;;25.50;43.60;;;;;;5056464;28;20533;-79
2022/07/08 05:27:49;;;;;;;1.20;1.10;;;25.50;43.70;;;;;;5055532;28;20466;-79
2022/07/08 05:30:17;;;;;;;1.20;1.10;;;25.50;43.80;;;;;;5055828;28;20448;-78
2022/07/08 05:32:45;;;;;;;2.00;1.10;;;25.60;43.80;;;;;;5046643;28;20572;-78
2022/07/08 05:35:13;;;;;;;3.57;1.43;;;25.50;43.80;;;;;;5045659;28;20457;-79
2022/07/08 05:37:41;;;;;;;3.57;1.33;;;25.60;43.80;;;;;;5039796;28;20446;-79
2022/07/08 05:40:10;;;;;;;2.43;1.20;;;25.50;43.70;;;;;;5039999;28;20441;-78
2022/07/08 05:42:39;;;;;;;3.03;1.43;;;25.60;43.70;;;;;;5038142;28;20528;-79
2022/07/08 05:45:08;;;;;;;5.80;1.80;;;25.60;43.80;;;;;;5035260;28;20475;-78
2022/07/08 05:47:36;;;;;;;2.20;1.23;;;25.60;43.70;;;;;;5035234;28;20541;-79
2022/07/08 05:50:05;;;;;;;3.70;1.30;;;25.60;43.70;;;;;;5045681;28;20538;-78
2022/07/08 05:52:33;;;;;;;2.47;1.30;;;25.60;43.60;;;;;;5046867;28;20509;-79
2022/07/08 05:55:01;;;;;;;1.50;1.10;;;25.60;43.70;;;;;;5054865;28;20468;-79
2022/07/08 05:57:29;;;;;;;3.30;1.80;;;25.70;43.70;;;;;;5055163;28;20456;-79
2022/07/08 05:59:59;;;;;;;1.80;1.27;;;25.70;43.80;;;;;;5056397;28;20489;-78
2022/07/08 06:02:27;;;;;;;6.20;1.13;;;25.70;43.80;;;;;;5053952;28;20467;-78
2022/07/08 06:04:55;;;;;;;2.37;1.20;;;25.70;43.60;;;;;;5055346;28;20487;-78
2022/07/08 06:07:23;;;;;;;1.77;1.37;;;25.60;43.80;;;;;;5051283;28;20441;-79
2022/07/08 06:09:51;;;;;;;2.90;1.27;;;25.70;43.70;;;;;;5049554;28;20470;-79
2022/07/08 06:12:19;;;;;;;1.33;1.23;;;25.70;43.70;;;;;;5057213;28;20477;-78
2022/07/08 06:14:47;;;;;;;1.53;1.20;;;25.70;43.60;;;;;;5057646;28;20529;-79
2022/07/08 06:17:16;;;;;;;4.20;1.40;;;25.70;43.50;;;;;;5057272;28;20428;-78
2022/07/08 06:19:44;;;;;;;1.47;1.37;;;25.80;43.50;;;;;;5058255;28;20447;-78
2022/07/08 06:22:12;;;;;;;1.60;1.30;;;25.80;43.40;;;;;;5054600;28;20446;-79
2022/07/08 06:24:40;;;;;;;1.70;1.27;;;25.90;43.40;;;;;;5048257;28;20519;-80
2022/07/08 06:27:08;;;;;;;1.13;1.03;;;25.90;43.40;;;;;;5056320;28;20529;-80
2022/07/08 06:29:36;;;;;;;1.60;1.50;;;26.00;43.30;;;;;;5055750;28;20505;-79
2022/07/08 06:32:05;;;;;;;1.67;1.57;;;26.10;43.10;;;;;;5055086;28;20452;-79
2022/07/08 06:34:34;;;;;;;2.30;1.50;;;26.10;43.00;;;;;;5056414;28;20579;-79
2022/07/08 06:37:03;;;;;;;1.90;1.20;;;26.20;42.90;;;;;;5056849;28;20529;-80
2022/07/08 06:39:31;;;;;;;1.50;1.40;;;26.20;42.80;;;;;;5058183;28;20508;-80
2022/07/08 06:41:59;;;;;;;1.47;1.20;;;26.20;42.70;;;;;;5056730;28;20543;-79
2022/07/08 06:44:26;;;;;;;1.83;1.40;;;26.20;42.80;;;;;;5042026;28;20450;-80
2022/07/08 06:46:54;;;;;;;1.77;1.10;;;26.20;42.80;;;;;;5037258;28;20510;-80
2022/07/08 06:49:22;;;;;;;1.53;1.27;;;26.20;42.80;;;;;;5037007;28;20481;-80
2022/07/08 06:51:52;;;;;;;1.23;1.13;;;26.20;42.80;;;;;;5037285;28;20509;-80
2022/07/08 06:54:38;;;;;;;1.93;1.13;;;26.20;42.90;;;;;;5036784;28;20550;-80
2022/07/08 06:57:07;;;;;;;1.90;1.30;;;26.20;42.80;;;;;;5047857;28;20545;-80
2022/07/08 06:59:35;;;;;;;3.73;1.40;;;26.20;42.80;;;;;;5048788;28;20406;-79
2022/07/08 07:02:23;;;;;;;1.63;1.20;;;26.20;42.90;;;;;;5059670;28;20435;-80
2022/07/08 07:04:51;;;;;;;1.73;1.20;;;26.20;43.00;;;;;;5057286;28;20401;-80
2022/07/08 07:07:20;;;;;;;1.47;1.37;;;26.20;42.80;;;;;;5059306;28;20413;-79
2022/07/08 07:09:48;;;;;;;1.30;1.20;;;26.20;42.90;;;;;;5058459;28;20448;-79
2022/07/08 07:12:17;;;;;;;2.07;1.20;;;26.20;43.10;;;;;;5057847;28;20557;-79
2022/07/08 07:14:44;;;;;;;3.63;1.30;;;26.20;43.00;;;;;;5056435;28;20439;-79
2022/07/08 07:17:12;;;;;;;1.20;1.10;;;26.20;42.90;;;;;;5057368;28;20462;-79
2022/07/08 07:19:40;;;;;;;2.23;1.23;;;26.20;42.90;;;;;;5055687;28;20433;-78
2022/07/08 07:22:08;;;;;;;2.10;1.10;;;26.20;42.90;;;;;;5053955;28;20466;-77
2022/07/08 07:24:37;;;;;;;2.33;1.27;;;26.20;42.80;;;;;;5057118;28;20525;-79
2022/07/08 07:27:05;;;;;;;2.27;1.20;;;26.20;42.80;;;;;;5059673;28;20526;-79
2022/07/08 07:29:33;;;;;;;1.47;1.37;;;26.20;42.90;;;;;;5059931;28;20540;-80
2022/07/08 07:32:01;;;;;;;1.93;1.10;;;26.20;42.90;;;;;;5055846;28;20471;-79
2022/07/08 07:34:29;;;;;;;1.90;1.27;;;26.20;43.10;;;;;;5057176;28;20438;-79
2022/07/08 07:36:57;;;;;;;1.43;1.27;;;26.20;43.00;;;;;;5061225;28;20488;-79
2022/07/08 07:39:25;;;;;;;2.00;1.17;;;26.20;43.30;;;;;;5060889;28;20967;-79
2022/07/08 07:41:55;;;;;;;2.60;1.10;;;26.20;43.10;;;;;;5060119;28;20445;-79
2022/07/08 07:44:23;;;;;;;1.43;1.20;;;26.30;43.00;;;;;;5059877;28;20433;-79
2022/07/08 07:46:50;;;;;;;2.20;0.97;;;26.30;43.00;;;;;;5059457;28;20540;-79
2022/07/08 07:49:18;;;;;;;2.03;1.53;;;26.30;42.90;;;;;;5058727;28;20468;-79
2022/07/08 07:51:46;;;;;;;1.70;1.33;;;26.40;42.90;;;;;;5051380;28;20533;-79
2022/07/08 07:54:14;;;;;;;1.57;1.27;;;26.30;42.80;;;;;;5059518;28;20528;-79
2022/07/08 07:56:42;;;;;;;1.30;1.20;;;26.40;43.40;;;;;;5059819;28;20533;-79
2022/07/08 07:59:12;;;;;;;2.73;1.40;;;26.40;42.80;;;;;;5060476;28;20470;-79
2022/07/08 08:01:40;;;;;;;1.60;1.23;;;26.40;42.80;;;;;;5059773;28;20470;-79
2022/07/08 08:04:08;;;;;;;2.77;1.40;;;26.40;42.80;;;;;;5060219;28;20451;-79
2022/07/08 08:06:36;;;;;;;1.60;1.13;;;26.40;42.80;;;;;;5058323;28;20481;-79
2022/07/08 08:09:04;;;;;;;8.10;1.37;;;26.40;42.80;;;;;;5052796;28;20557;-80
2022/07/08 08:11:32;;;;;;;1.30;1.20;;;26.40;42.80;;;;;;5060522;28;20545;-79
2022/07/08 08:14:00;;;;;;;1.73;1.07;;;26.50;42.80;;;;;;5059647;28;20476;-79
2022/07/08 08:16:29;;;;;;;1.73;1.10;;;26.50;42.60;;;;;;5061239;28;20537;-80
2022/07/08 08:18:57;;;;;;;1.93;1.37;;;26.60;42.70;;;;;;5059855;28;20533;-79
2022/07/08 08:21:25;;;;;;;3.53;1.00;;;26.60;42.60;;;;;;5060135;28;20443;-79
2022/07/08 08:23:53;;;;;;;2.30;1.40;;;26.60;42.50;;;;;;5055239;28;20494;-79
2022/07/08 08:26:22;;;;;;;1.27;1.17;;;26.60;42.60;;;;;;5053692;28;20430;-79
2022/07/08 08:28:50;;;;;;;1.00;1.00;;;26.60;42.60;;;;;;5055860;28;20440;-79
2022/07/08 08:31:18;;;;;;;2.50;1.20;;;26.60;42.50;;;;;;5059489;28;20409;-79
2022/07/08 08:33:47;;;;;;;1.20;1.10;;;26.60;42.60;;;;;;5059611;28;20526;-79
2022/07/08 08:36:15;;;;;;;1.20;1.10;;;26.70;42.60;;;;;;5059641;28;20454;-79
2022/07/08 08:38:43;;;;;;;2.50;1.20;;;26.80;42.60;;;;;;5058698;28;20471;-79
2022/07/08 08:41:11;;;;;;;1.27;1.00;;;26.80;42.40;;;;;;5051755;28;20413;-79
2022/07/08 08:43:38;;;;;;;2.63;1.23;;;26.80;42.40;;;;;;5060216;28;20486;-79
2022/07/08 08:46:06;;;;;;;1.20;1.10;;;26.90;42.30;;;;;;5060930;28;20541;-79
2022/07/08 08:48:36;;;;;;;2.57;1.00;;;27.00;42.30;;;;;;5061154;28;20469;-79
2022/07/08 08:51:08;;;;;;;1.63;1.20;;;27.00;42.10;;;;;;5061240;28;20448;-79
2022/07/08 08:53:40;;;;;;;2.63;1.20;;;27.00;42.00;;;;;;5060458;28;20480;-79
2022/07/08 08:56:09;;;;;;;1.67;1.40;;;27.00;42.10;;;;;;5056146;28;20458;-79
2022/07/08 08:58:38;;;;;;;1.43;1.33;;;27.00;42.00;;;;;;5041512;28;20470;-79
2022/07/08 09:01:07;;;;;;;1.47;1.20;;;27.00;42.10;;;;;;5041735;28;20522;-79
2022/07/08 09:03:35;;;;;;;2.73;1.23;;;27.00;42.00;;;;;;5040794;28;20434;-79
2022/07/08 09:06:05;;;;;;;1.63;1.20;;;27.00;42.00;;;;;;5039976;28;20498;-79
2022/07/08 09:08:33;;;;;;;2.57;1.43;;;27.00;42.10;;;;;;5040831;28;20443;-79
2022/07/08 09:11:01;;;;;;;1.63;1.27;;;26.90;42.20;;;;;;5047677;28;20501;-79
2022/07/08 09:13:29;;;;;;;1.43;1.30;;;26.90;42.30;;;;;;5053404;28;20493;-79
2022/07/08 09:16:02;;;;;;;1.50;1.27;;;26.90;42.40;;;;;;5059987;28;20447;-79
2022/07/08 09:18:31;;;;;;;2.00;1.33;;;26.80;42.40;;;;;;5066469;28;20507;-79
2022/07/08 09:21:00;;;;;;;1.40;1.30;;;26.80;42.50;;;;;;5066292;28;20445;-79
2022/07/08 09:23:30;;;;;;;1.13;1.03;;;26.80;42.50;;;;;;5081353;28;20462;-79
2022/07/08 09:25:59;;;;;;;1.20;1.10;;;26.80;42.40;;;;;;5080142;28;20521;-79
2022/07/08 09:28:31;;;;;;;1.73;1.20;;;26.80;42.50;;;;;;5071715;28;20530;-79
2022/07/08 09:31:00;;;;;;;2.30;1.10;;;26.80;42.60;;;;;;5051866;28;20502;-79
2022/07/08 09:33:28;;;;;;;1.70;1.20;;;26.80;42.60;;;;;;5060964;28;20549;-79
2022/07/08 09:36:00;;;;;;;2.20;1.33;;;26.80;42.60;;;;;;5061600;28;20481;-79
2022/07/08 09:38:30;;;;;;;2.00;1.47;;;26.80;42.60;;;;;;5064651;28;20447;-79
2022/07/08 09:40:59;;;;;;;1.67;1.30;;;26.80;42.70;;;;;;5064428;28;20549;-79
2022/07/08 09:43:27;;;;;;;1.37;1.17;;;26.80;42.70;;;;;;5064928;28;20473;-79
2022/07/08 09:45:55;;;;;;;1.80;1.13;;;26.80;42.70;;;;;;5056309;28;20451;-79
2022/07/08 09:48:31;;;;;;;1.53;1.10;;;26.80;42.60;;;;;;5047916;28;20454;-79
2022/07/08 09:51:00;;;;;;;1.10;1.00;;;26.80;42.60;;;;;;5063725;28;20484;-79
2022/07/08 09:53:33;;;;;;;2.80;1.27;;;26.90;42.60;;;;;;5080224;28;20466;-79
2022/07/08 09:56:02;;;;;;;1.40;1.20;;;26.80;42.50;;;;;;5083723;28;20445;-79
2022/07/08 09:58:31;;;;;;;1.43;1.03;;;26.80;42.60;;;;;;5083438;28;20446;-79
2022/07/08 10:01:00;;;;;;;2.80;1.50;;;26.80;42.60;;;;;;5085383;28;20430;-80
2022/07/08 10:03:29;;;;;;;5.53;1.40;;;26.80;42.60;;;;;;5062040;28;20479;-81
2022/07/08 10:05:58;;;;;;;1.33;1.23;;;26.80;42.90;;;;;;5043545;28;20410;-81
2022/07/08 10:08:26;;;;;;;6.53;1.00;;;26.80;43.00;;;;;;5052703;28;20433;-80
2022/07/08 10:10:57;;;;;;;1.30;1.13;;;26.80;43.20;;;;;;5052626;28;20467;-80
2022/07/08 10:13:26;;;;;;;4.60;1.07;;;26.80;43.10;;;;;;5050367;28;20490;-80
2022/07/08 10:15:57;;;;;;;2.60;1.40;;;26.80;43.10;;;;;;5045202;28;20461;-79
2022/07/08 10:18:32;;;;;;;2.30;1.20;;;26.90;43.40;;;;;;5046042;28;20521;-79
2022/07/08 10:21:00;;;;;;;2.00;1.63;;;26.80;43.30;;;;;;5052536;28;20433;-79
2022/07/08 10:23:28;;;;;;;1.10;1.00;;;26.80;43.40;;;;;;5062566;28;20462;-79
2022/07/08 10:25:59;;;;;;;2.50;1.10;;;26.80;43.40;;;;;;5062679;28;20517;-79
2022/07/08 10:28:34;;;;;;;1.77;1.10;;;26.90;43.50;;;;;;5064354;28;20439;-79
2022/07/08 10:31:02;;;;;;;4.00;1.20;;;26.90;43.60;;;;;;5044275;28;20474;-79
2022/07/08 10:33:30;;;;;;;1.47;0.93;;;26.90;43.50;;;;;;5044491;28;20490;-79
2022/07/08 10:36:04;;;;;;;2.30;1.03;;;26.90;43.50;;;;;;5048349;28;20443;-79
2022/07/08 10:38:35;;;;;;;1.50;1.40;;;27.00;43.60;;;;;;5063137;28;20449;-80
2022/07/08 10:41:07;;;;;;;4.50;1.00;;;27.00;43.60;;;;;;5069264;28;20446;-79
2022/07/08 10:43:35;;;;;;;1.97;1.00;;;27.00;43.60;;;;;;5060069;28;20466;-79
2022/07/08 10:46:14;;;;;;;2.63;1.30;;;27.00;43.50;;;;;;5051985;28;20422;-79
2022/07/08 10:48:50;;;;;;;2.70;1.10;;;27.00;43.80;;;;;;5046900;28;20462;-79
2022/07/08 10:51:44;;;;;;;1.40;1.30;;;27.00;43.60;;;;;;5052948;28;20448;-79
2022/07/08 10:54:24;;;;;;;2.90;1.30;;;27.00;43.60;;;;;;5052822;28;20546;-79
2022/07/08 10:56:54;;;;;;;1.53;1.20;;;27.00;43.60;;;;;;5061651;28;20409;-79
2022/07/08 10:59:23;;;;;;;2.13;1.20;;;27.10;43.60;;;;;;5065182;28;20442;-79
2022/07/08 11:01:51;;;;;;;1.20;1.10;;;27.10;43.60;;;;;;5063246;28;20465;-79
2022/07/08 11:04:26;;;;;;;1.50;1.40;;;27.20;43.50;;;;;;5062532;28;20559;-79
2022/07/08 11:06:55;;;;;;;1.47;1.10;;;27.20;43.40;;;;;;5057125;28;20432;-79
2022/07/08 11:09:23;;;;;;;1.10;1.00;;;27.20;43.40;;;;;;5059194;28;20440;-79
2022/07/08 11:11:52;;;;;;;2.70;1.10;;;27.20;43.40;;;;;;5050202;28;20509;-79
2022/07/08 11:14:20;;;;;;;2.80;1.67;;;27.30;43.40;;;;;;5056000;28;20458;-79
2022/07/08 11:16:48;;;;;;;1.53;1.27;;;27.30;43.30;;;;;;5045660;28;20445;-79
2022/07/08 11:19:16;;;;;;;2.50;1.30;;;27.40;43.30;;;;;;5051740;28;20443;-80
2022/07/08 11:21:44;;;;;;;1.80;1.10;;;27.40;43.20;;;;;;5067870;28;20437;-79
2022/07/08 11:24:32;;;;;;;1.63;1.20;;;27.40;43.20;;;;;;5065421;28;20505;-79
2022/07/08 11:27:01;;;;;;;1.70;1.00;;;27.40;43.20;;;;;;5056460;28;20459;-79
2022/07/08 11:29:29;;;;;;;3.27;1.33;;;27.40;43.20;;;;;;5066209;28;20569;-81
2022/07/08 11:31:57;;;;;;;9.17;1.30;;;27.40;43.20;;;;;;5067994;28;20523;-81
2022/07/08 11:34:25;;;;;;;2.50;0.87;;;27.40;43.20;;;;;;5065804;28;20468;-87
2022/07/08 11:36:54;;;;;;;4.97;3.30;;;27.40;43.60;;;;;;5052439;28;20410;-83
2022/07/08 11:39:24;;;;;;;3.85;1.70;;;27.50;43.40;;;;;;5042655;28;20447;-84
2022/07/08 11:41:52;;;;;;;10.33;3.13;;;27.00;44.70;;;;;;5041042;28;20248;-84
2022/07/08 11:44:22;;;;;;;5.90;2.30;;;26.10;49.20;;;;;;5044785;28;20472;-80
2022/07/08 11:46:51;;;;;;;6.27;2.60;;;25.40;51.90;;;;;;5058239;28;20437;-80
2022/07/08 11:49:20;;;;;;;5.80;2.50;;;25.10;53.10;;;;;;5057551;28;20509;-80
2022/07/08 11:51:48;;;;;;;8.57;3.08;;;24.30;53.80;;;;;;5047768;28;20465;-80
2022/07/08 11:54:17;;;;;;;4.10;2.67;;;24.50;54.70;;;;;;5041538;28;20281;-80
2022/07/08 11:56:44;;;;;;;5.50;2.37;;;24.50;54.60;;;;;;5057808;28;20485;-80
2022/07/08 11:59:12;;;;;;;5.83;2.63;;;24.80;54.20;;;;;;5056601;28;20473;-80
2022/07/08 12:01:41;;;;;;;6.87;2.10;;;25.10;54.30;;;;;;5048933;28;20444;-80
2022/07/08 12:04:09;;;;;;;5.10;2.03;;;25.20;53.70;;;;;;5056641;28;20499;-80
2022/07/08 12:06:44;;;;;;;6.30;2.50;;;25.40;53.90;;;;;;5055236;28;20445;-80
2022/07/08 12:09:12;;;;;;;9.57;2.53;;;25.20;53.80;;;;;;5037981;28;20217;-80
2022/07/08 12:11:40;;;;;;;5.07;2.60;;;25.30;53.50;;;;;;5052498;28;20441;-84
2022/07/08 12:14:09;;;;;;;9.23;2.63;;;24.90;53.90;;;;;;5045631;28;20288;-80
2022/07/08 12:16:43;;;;;;;9.53;2.73;;;24.80;54.40;;;;;;5048016;28;20448;-82
2022/07/08 12:19:31;;;;;;;8.77;2.70;;;24.80;55.10;;;;;;5038965;28;20508;-80
2022/07/08 12:21:59;;;;;;;7.10;2.60;;;25.10;54.70;;;;;;5037534;28;20518;-80
2022/07/08 12:24:28;;;;;;;5.23;2.40;;;25.00;55.30;;;;;;5037872;28;20289;-81
2022/07/08 12:26:57;;;;;;;8.30;2.72;;;24.80;55.60;;;;;;5043899;28;20397;-81
2022/07/08 12:29:28;;;;;;;6.70;2.70;;;24.80;55.70;;;;;;5057868;28;20202;-81
2022/07/08 12:32:03;;;;;;;6.63;2.37;;;24.80;55.70;;;;;;5056991;28;20477;-81
2022/07/08 12:34:31;;;;;;;7.43;2.67;;;24.90;55.90;;;;;;5049188;28;20405;-80
2022/07/08 12:37:13;;;;;;;7.15;2.60;;;25.10;55.80;;;;;;5040089;28;20522;-81
2022/07/08 12:39:41;;;;;;;4.90;2.43;;;25.20;55.60;;;;;;5045944;28;20522;-80
2022/07/08 12:42:24;;;;;;;12.50;2.93;;;25.20;55.20;;;;;;5043635;28;20394;-81
2022/07/08 12:44:52;;;;;;;9.63;3.10;;;25.30;55.20;;;;;;5054370;28;20438;-81
2022/07/08 12:47:21;;;;;;;7.27;3.20;;;25.40;55.80;;;;;;5056711;28;20493;-80
2022/07/08 12:49:50;;;;;;;16.27;8.67;;;25.80;55.00;;;;;;5047079;28;20462;-80
2022/07/08 12:52:18;;;;;;;12.93;8.07;;;26.10;53.70;;;;;;5045709;28;20489;-80
2022/07/08 12:54:46;;;;;;;5.13;3.60;;;26.00;53.80;;;;;;5046370;28;20505;-80